createdAt,value
2023-04-20T00:01:17.300Z,8.50
2023-04-20T00:03:44.741Z,8.48
2023-04-20T00:06:12.382Z,6.80
2023-04-20T00:08:39.784Z,6.25
2023-04-20T00:11:07.360Z,8.65
2023-04-20T00:13:36.984Z,6.93
2023-04-20T00:16:04.303Z,10.20
2023-04-20T00:18:31.596Z,6.72
2023-04-20T00:20:58.750Z,5.78
2023-04-20T00:23:26.020Z,6.50
2023-04-20T00:25:53.377Z,6.85
2023-04-20T00:28:20.822Z,6.30
2023-04-20T00:30:47.798Z,5.70
2023-04-20T00:33:15.132Z,5.15
2023-04-20T00:35:42.295Z,3.10
2023-04-20T00:38:09.583Z,7.90
2023-04-20T00:40:36.596Z,2.80
2023-04-20T00:43:14.384Z,4.10
2023-04-20T00:45:41.422Z,1.88
2023-04-20T00:48:08.738Z,5.82
2023-04-20T00:50:37.599Z,4.22
2023-04-20T00:53:06.620Z,9.63
2023-04-20T00:55:35.365Z,7.00
2023-04-20T00:58:02.712Z,10.18
2023-04-20T01:00:30.171Z,12.38
2023-04-20T01:02:57.671Z,14.77
2023-04-20T01:05:25.525Z,11.10
2023-04-20T01:07:53.105Z,13.27
2023-04-20T01:10:20.118Z,17.65
2023-04-20T01:12:47.653Z,14.70
2023-04-20T01:15:14.657Z,13.30
2023-04-20T01:17:43.902Z,4.35
2023-04-20T01:22:54.423Z,11.00
2023-04-20T01:25:22.026Z,9.18
2023-04-20T01:27:49.454Z,8.52
2023-04-20T01:30:17.404Z,14.77
2023-04-20T01:32:45.228Z,12.10
2023-04-20T01:35:12.505Z,7.18
2023-04-20T01:37:40.897Z,11.35
2023-04-20T01:40:13.413Z,22.08
2023-04-20T01:42:41.190Z,20.50
2023-04-20T01:45:08.745Z,16.40
2023-04-20T01:47:37.134Z,16.55
2023-04-20T01:50:05.475Z,10.50
2023-04-20T01:52:32.937Z,15.98
2023-04-20T01:55:00.087Z,18.02
2023-04-20T01:57:27.484Z,9.32
2023-04-20T01:59:54.698Z,14.40
2023-04-20T02:02:22.092Z,9.32
2023-04-20T02:04:49.311Z,8.20
2023-04-20T02:07:16.815Z,15.25
2023-04-20T02:09:44.059Z,14.07
2023-04-20T02:12:12.632Z,15.38
2023-04-20T02:14:39.747Z,9.43
2023-04-20T02:17:07.780Z,11.10
2023-04-20T02:19:34.892Z,15.55
2023-04-20T02:22:02.504Z,13.45
2023-04-20T02:24:29.432Z,10.73
2023-04-20T02:26:57.379Z,10.25
2023-04-20T02:29:26.012Z,17.33
2023-04-20T02:31:53.777Z,10.15
2023-04-20T02:34:20.909Z,19.13
2023-04-20T02:36:49.035Z,19.58
2023-04-20T02:39:16.429Z,12.93
2023-04-20T02:41:44.176Z,11.32
2023-04-20T02:44:11.205Z,21.52
2023-04-20T02:46:38.803Z,11.35
2023-04-20T02:49:05.853Z,23.23
2023-04-20T02:51:33.228Z,14.98
2023-04-20T02:54:01.738Z,10.65
2023-04-20T02:56:29.107Z,12.13
2023-04-20T02:58:56.502Z,15.48
2023-04-20T03:01:24.017Z,12.85
2023-04-20T03:03:51.266Z,15.18
2023-04-20T03:06:18.879Z,22.15
2023-04-20T03:08:46.277Z,15.10
2023-04-20T03:11:13.667Z,20.15
2023-04-20T03:13:41.616Z,16.85
2023-04-20T03:16:11.837Z,20.00
2023-04-20T03:18:38.876Z,16.60
2023-04-20T03:21:06.187Z,21.00
2023-04-20T03:23:33.287Z,16.95
2023-04-20T03:26:01.710Z,15.88
2023-04-20T03:28:28.803Z,25.60
2023-04-20T03:30:56.597Z,15.07
2023-04-20T03:33:23.566Z,13.45
2023-04-20T03:35:50.972Z,19.83
2023-04-20T03:38:18.109Z,22.15
2023-04-20T03:40:46.193Z,24.67
2023-04-20T03:43:16.286Z,15.55
2023-04-20T03:45:43.913Z,20.48
2023-04-20T03:48:10.879Z,16.65
2023-04-20T03:50:38.544Z,20.90
2023-04-20T03:53:05.615Z,13.20
2023-04-20T03:55:33.027Z,13.50
2023-04-20T03:58:01.271Z,14.60
2023-04-20T04:00:28.746Z,17.05
2023-04-20T04:02:55.832Z,20.25
2023-04-20T04:05:26.119Z,17.38
2023-04-20T04:10:20.970Z,17.30
2023-04-20T04:12:48.042Z,12.90
2023-04-20T04:15:15.439Z,11.43
2023-04-20T04:17:42.558Z,12.65
2023-04-20T04:20:11.648Z,9.95
2023-04-20T04:22:38.911Z,20.08
2023-04-20T04:25:06.951Z,17.15
2023-04-20T04:27:37.704Z,18.05
2023-04-20T04:30:05.941Z,11.70
2023-04-20T04:32:34.707Z,13.52
2023-04-20T04:35:02.270Z,14.50
2023-04-20T04:37:29.473Z,18.88
2023-04-20T04:39:58.280Z,14.18
2023-04-20T04:42:25.500Z,9.15
2023-04-20T04:44:54.976Z,5.78
2023-04-20T04:47:23.164Z,10.60
2023-04-20T04:49:50.653Z,5.72
2023-04-20T04:52:17.632Z,16.83
2023-04-20T04:54:45.437Z,9.82
2023-04-20T04:57:12.732Z,7.38
2023-04-20T04:59:40.025Z,3.90
2023-04-20T05:02:07.202Z,4.72
2023-04-20T05:04:35.004Z,6.53
2023-04-20T05:07:05.052Z,5.75
2023-04-20T05:09:34.429Z,4.15
2023-04-20T05:12:01.997Z,8.50
2023-04-20T05:14:31.863Z,7.25
2023-04-20T05:17:03.881Z,10.38
2023-04-20T05:19:41.449Z,10.30
2023-04-20T05:22:09.531Z,8.68
2023-04-20T05:24:49.706Z,9.50
2023-04-20T05:27:16.824Z,6.82
2023-04-20T05:29:44.652Z,6.15
2023-04-20T05:32:13.544Z,10.10
2023-04-20T05:34:47.965Z,7.72
2023-04-20T05:37:16.066Z,11.85
2023-04-20T05:39:43.625Z,9.70
2023-04-20T05:42:38.052Z,13.55
2023-04-20T05:45:07.696Z,11.77
2023-04-20T05:47:36.868Z,14.27
2023-04-20T05:50:05.955Z,8.95
2023-04-20T05:52:33.106Z,10.57
2023-04-20T05:55:00.739Z,11.25
2023-04-20T05:57:28.523Z,12.13
2023-04-20T06:00:04.371Z,8.20
2023-04-20T06:02:32.726Z,7.00
2023-04-20T06:05:01.389Z,7.18
2023-04-20T06:07:28.650Z,6.85
2023-04-20T06:09:57.554Z,7.07
2023-04-20T06:12:26.691Z,6.13
2023-04-20T06:14:54.301Z,8.48
2023-04-20T06:17:21.470Z,12.20
2023-04-20T06:19:49.494Z,13.77
2023-04-20T06:22:18.869Z,13.35
2023-04-20T06:24:46.938Z,10.23
2023-04-20T06:27:14.221Z,11.35
2023-04-20T06:29:44.869Z,8.68
2023-04-20T06:32:11.937Z,12.93
2023-04-20T06:34:39.639Z,9.43
2023-04-20T06:37:07.746Z,12.60
2023-04-20T06:42:03.409Z,11.38
2023-04-20T06:44:30.860Z,16.75
2023-04-20T06:46:58.940Z,16.13
2023-04-20T06:54:53.713Z,13.10
2023-04-20T06:57:20.784Z,9.63
2023-04-20T06:59:48.462Z,17.08
2023-04-20T07:02:15.665Z,18.83
2023-04-20T07:04:45.335Z,8.98
2023-04-20T07:09:39.898Z,10.15
2023-04-20T07:12:07.065Z,9.30
2023-04-20T07:14:34.449Z,11.80
2023-04-20T07:17:01.575Z,8.40
2023-04-20T07:19:29.036Z,16.50
2023-04-20T07:21:56.558Z,10.05
2023-04-20T07:24:24.218Z,9.85
2023-04-20T07:26:51.536Z,7.90
2023-04-20T07:29:19.159Z,14.15
2023-04-20T07:31:46.512Z,12.32
2023-04-20T07:34:14.092Z,16.10
2023-04-20T07:36:41.138Z,9.35
2023-04-20T07:39:10.238Z,9.68
2023-04-20T07:41:37.395Z,17.00
2023-04-20T07:44:05.089Z,16.58
2023-04-20T07:46:32.314Z,6.95
2023-04-20T07:48:59.927Z,20.50
2023-04-20T07:51:31.594Z,16.65
2023-04-20T07:53:59.885Z,21.52
2023-04-20T07:56:27.104Z,15.32
2023-04-20T08:01:47.156Z,16.25
2023-04-20T08:04:19.640Z,16.52
2023-04-20T08:06:49.344Z,9.50
2023-04-20T08:09:17.530Z,21.55
2023-04-20T08:11:46.403Z,21.42
2023-04-20T08:14:14.775Z,11.20
2023-04-20T08:16:41.815Z,9.60
2023-04-20T08:19:12.024Z,14.43
2023-04-20T08:21:40.572Z,14.93
2023-04-20T08:24:09.395Z,16.23
2023-04-20T08:26:40.142Z,23.35
2023-04-20T08:29:10.578Z,16.27
2023-04-20T08:31:37.762Z,9.70
2023-04-20T08:34:06.375Z,10.25
2023-04-20T08:36:35.069Z,11.95
2023-04-20T08:39:09.909Z,16.58
2023-04-20T08:41:37.072Z,17.35
2023-04-20T08:44:05.192Z,19.15
2023-04-20T08:46:34.247Z,12.18
2023-04-20T08:49:05.162Z,16.38
2023-04-20T08:51:32.863Z,14.43
2023-04-20T08:54:07.654Z,17.45
2023-04-20T08:56:43.660Z,15.93
2023-04-20T08:59:11.382Z,9.82
2023-04-20T09:01:42.098Z,20.27
2023-04-20T09:04:29.118Z,16.70
2023-04-20T09:06:56.663Z,17.52
2023-04-20T09:09:26.880Z,13.18
2023-04-20T09:12:07.351Z,14.50
2023-04-20T09:14:45.959Z,15.10
2023-04-20T09:17:15.432Z,14.45
2023-04-20T09:19:45.597Z,16.58
2023-04-20T09:22:13.039Z,13.55
2023-04-20T09:24:42.799Z,16.77
2023-04-20T09:27:18.004Z,14.30
2023-04-20T09:29:58.047Z,10.82
2023-04-20T09:32:26.738Z,16.38
2023-04-20T09:37:23.184Z,14.43
2023-04-20T09:39:50.855Z,10.40
2023-04-20T09:42:18.442Z,17.98
2023-04-20T09:44:46.235Z,21.42
2023-04-20T09:47:21.286Z,10.15
2023-04-20T09:49:49.813Z,15.02
2023-04-20T09:52:18.667Z,16.55
2023-04-20T09:54:46.280Z,17.52
2023-04-20T09:57:14.651Z,11.68
2023-04-20T09:59:46.698Z,12.23
2023-04-20T10:02:14.850Z,18.52
2023-04-20T10:04:54.534Z,21.38
2023-04-20T10:07:29.093Z,19.67
2023-04-20T10:10:10.555Z,13.68
2023-04-20T10:12:56.799Z,17.13
2023-04-20T10:15:27.388Z,20.63
2023-04-20T10:17:54.697Z,19.17
2023-04-20T10:20:26.617Z,13.27
2023-04-20T10:25:59.296Z,15.32
2023-04-20T10:28:39.874Z,22.45
2023-04-20T10:31:09.042Z,18.08
2023-04-20T10:38:48.637Z,13.57
2023-04-20T10:41:16.130Z,16.80
2023-04-20T10:43:43.718Z,12.52
2023-04-20T10:46:19.806Z,16.67
2023-04-20T10:49:05.162Z,7.90
2023-04-20T10:51:32.559Z,17.05
2023-04-20T10:54:06.115Z,18.55
2023-04-20T10:56:38.301Z,13.70
2023-04-20T10:59:13.654Z,15.73
2023-04-20T11:01:41.814Z,19.25
2023-04-20T11:04:15.540Z,13.13
2023-04-20T11:06:50.334Z,22.70
2023-04-20T11:09:29.076Z,16.38
2023-04-20T11:12:00.277Z,19.02
2023-04-20T11:14:27.331Z,17.90
2023-04-20T11:16:56.685Z,25.17
2023-04-20T11:19:30.484Z,15.40
2023-04-20T11:21:58.678Z,18.33
2023-04-20T11:24:38.350Z,19.77
2023-04-20T11:27:06.002Z,18.33
2023-04-20T11:29:38.889Z,14.43
2023-04-20T11:32:11.501Z,23.10
2023-04-20T11:34:40.031Z,16.95
2023-04-20T11:37:13.138Z,13.57
2023-04-20T11:39:40.405Z,16.15
2023-04-20T11:42:07.825Z,17.50
2023-04-20T11:44:36.831Z,18.35
2023-04-20T11:47:13.348Z,17.35
2023-04-20T11:49:40.846Z,20.90
2023-04-20T11:52:08.234Z,22.55
2023-04-20T11:54:35.590Z,18.77
2023-04-20T11:57:03.087Z,11.82
2023-04-20T11:59:30.266Z,13.48
2023-04-20T12:01:57.676Z,21.45
2023-04-20T12:04:25.131Z,15.82
2023-04-20T12:06:52.702Z,17.25
2023-04-20T12:09:20.075Z,19.95
2023-04-20T12:11:47.642Z,16.05
2023-04-20T12:14:15.895Z,15.38
2023-04-20T12:16:43.310Z,13.52
2023-04-20T12:19:10.445Z,17.83
2023-04-20T12:21:38.262Z,11.35
2023-04-20T12:24:05.587Z,13.18
2023-04-20T12:26:39.149Z,10.07
2023-04-20T12:29:07.444Z,18.30
2023-04-20T12:31:35.935Z,17.52
2023-04-20T12:34:03.194Z,13.60
2023-04-20T12:36:32.785Z,15.15
2023-04-20T12:38:59.988Z,10.98
2023-04-20T12:44:15.201Z,16.60
2023-04-20T12:46:58.661Z,14.85
2023-04-20T12:53:05.509Z,15.77
2023-04-20T12:55:41.864Z,11.93
2023-04-20T13:01:07.754Z,5.80
2023-04-20T13:03:36.711Z,16.17
2023-04-20T13:08:48.344Z,7.07
2023-04-20T13:11:27.193Z,10.07
2023-04-20T13:14:08.760Z,9.80
2023-04-20T13:16:35.866Z,12.15
2023-04-20T13:19:04.156Z,12.68
2023-04-20T13:21:34.088Z,10.65
2023-04-20T13:24:02.200Z,13.63
2023-04-20T13:26:32.024Z,17.55
2023-04-20T13:29:01.200Z,12.85
2023-04-20T13:31:29.716Z,11.95
2023-04-20T13:34:11.561Z,13.90
2023-04-20T13:36:39.713Z,10.48
2023-04-20T13:39:15.852Z,13.32
2023-04-20T13:41:43.208Z,10.10
2023-04-20T13:44:16.177Z,11.20
2023-04-20T13:46:45.372Z,12.25
2023-04-20T13:49:13.543Z,12.45
2023-04-20T13:51:41.139Z,9.32
2023-04-20T13:54:08.615Z,7.63
2023-04-20T13:56:35.980Z,8.18
2023-04-20T13:59:06.887Z,10.40
2023-04-20T14:01:52.287Z,10.85
2023-04-20T14:04:27.225Z,10.90
2023-04-20T14:06:54.356Z,12.10
2023-04-20T14:09:22.284Z,9.15
2023-04-20T14:11:53.360Z,10.32
2023-04-20T14:14:22.540Z,7.88
2023-04-20T14:16:58.020Z,12.18
2023-04-20T14:19:25.594Z,8.68
2023-04-20T14:21:55.440Z,16.27
2023-04-20T14:24:23.415Z,12.23
2023-04-20T14:26:51.655Z,13.32
2023-04-20T14:29:19.055Z,12.60
2023-04-20T14:31:47.397Z,11.45
2023-04-20T14:34:15.118Z,10.50
2023-04-20T14:36:42.342Z,9.38
2023-04-20T14:39:11.041Z,6.90
2023-04-20T14:41:40.070Z,9.23
2023-04-20T14:44:08.475Z,6.45
2023-04-20T14:46:35.831Z,6.15
2023-04-20T14:49:03.367Z,8.27
2023-04-20T14:51:42.295Z,6.70
2023-04-20T14:54:27.192Z,9.68
2023-04-20T14:56:54.619Z,8.48
2023-04-20T14:59:22.322Z,8.30
2023-04-20T15:02:01.715Z,8.02
2023-04-20T15:04:29.846Z,5.28
2023-04-20T15:06:58.689Z,11.40
2023-04-20T15:09:26.136Z,10.57
2023-04-20T15:11:53.640Z,8.48
2023-04-20T15:14:21.253Z,7.18
2023-04-20T15:17:04.575Z,12.68
2023-04-20T15:19:31.880Z,9.50
2023-04-20T15:21:58.979Z,11.63
2023-04-20T15:24:26.910Z,9.32
2023-04-20T15:26:54.013Z,10.88
2023-04-20T15:29:21.531Z,9.75
2023-04-20T15:31:48.799Z,11.43
2023-04-20T15:34:17.877Z,9.55
2023-04-20T15:36:45.276Z,9.82
2023-04-20T15:39:13.260Z,13.00
2023-04-20T15:41:40.584Z,9.35
2023-04-20T15:44:08.166Z,10.65
2023-04-20T15:46:37.060Z,10.40
2023-04-20T15:49:04.552Z,9.63
2023-04-20T15:51:31.898Z,7.15
2023-04-20T15:54:01.791Z,8.80
2023-04-20T15:56:28.925Z,12.68
2023-04-20T15:58:56.629Z,7.82
2023-04-20T16:01:23.840Z,9.18
2023-04-20T16:03:51.565Z,12.48
2023-04-20T16:06:19.114Z,13.13
2023-04-20T16:08:49.597Z,6.90
2023-04-20T16:11:17.299Z,12.75
2023-04-20T16:13:44.779Z,12.57
2023-04-20T16:16:12.575Z,12.38
2023-04-20T16:18:41.061Z,13.90
2023-04-20T16:21:08.760Z,9.40
2023-04-20T16:23:37.948Z,10.40
2023-04-20T16:26:05.704Z,12.88
2023-04-20T16:31:14.695Z,13.60
2023-04-20T16:33:43.320Z,8.60
2023-04-20T16:36:10.466Z,9.45
2023-04-20T16:38:39.234Z,10.43
2023-04-20T16:41:06.703Z,10.63
2023-04-20T16:43:34.515Z,7.93
2023-04-20T16:46:02.524Z,9.75
2023-04-20T16:48:30.330Z,7.35
2023-04-20T16:50:58.964Z,11.50
2023-04-20T16:53:27.478Z,11.63
2023-04-20T16:55:54.990Z,11.98
2023-04-20T16:58:27.424Z,11.07
2023-04-20T17:00:54.666Z,7.35
2023-04-20T17:03:25.171Z,7.43
2023-04-20T17:05:52.324Z,7.97
2023-04-20T17:08:21.778Z,9.13
2023-04-20T17:10:50.652Z,10.52
2023-04-20T17:13:20.248Z,9.68
2023-04-20T17:15:47.754Z,7.45
2023-04-20T17:18:15.606Z,7.93
2023-04-20T17:20:48.612Z,12.23
2023-04-20T17:23:21.350Z,10.55
2023-04-20T17:25:49.417Z,8.02
2023-04-20T17:28:16.943Z,7.38
2023-04-20T17:30:46.654Z,6.45
2023-04-20T17:33:14.043Z,6.90
2023-04-20T17:35:41.251Z,10.85
2023-04-20T17:40:56.322Z,13.15
2023-04-20T17:43:23.731Z,8.93
2023-04-20T17:45:52.831Z,7.63
2023-04-20T17:48:20.839Z,6.75
2023-04-20T17:50:49.359Z,12.85
2023-04-20T17:53:16.962Z,8.77
2023-04-20T17:55:51.831Z,10.57
2023-04-20T17:58:19.430Z,7.25
2023-04-20T18:00:55.947Z,10.02
2023-04-20T18:03:23.966Z,7.45
2023-04-20T18:05:52.067Z,9.80
2023-04-20T18:08:23.285Z,6.50
2023-04-20T18:10:50.363Z,7.38
2023-04-20T18:13:17.861Z,7.03
2023-04-20T18:15:54.347Z,4.90
2023-04-20T18:18:42.949Z,4.57
2023-04-20T18:21:23.117Z,5.78
2023-04-20T18:23:51.692Z,5.65
2023-04-20T18:26:22.667Z,4.82
2023-04-20T18:28:54.356Z,5.85
2023-04-20T18:31:21.513Z,7.47
2023-04-20T18:33:51.073Z,6.32
2023-04-20T18:36:18.010Z,7.47
2023-04-20T18:38:45.359Z,5.53
2023-04-20T18:41:15.129Z,6.05
2023-04-20T18:43:45.629Z,5.88
2023-04-20T18:46:13.651Z,8.13
2023-04-20T18:48:41.307Z,5.32
2023-04-20T18:51:08.338Z,7.82
2023-04-20T18:53:36.785Z,7.10
2023-04-20T18:56:04.125Z,7.40
2023-04-20T18:58:31.998Z,3.85
2023-04-20T19:01:01.171Z,6.38
2023-04-20T19:03:28.773Z,5.18
2023-04-20T19:05:55.854Z,7.45
2023-04-20T19:08:24.179Z,7.72
2023-04-20T19:10:51.776Z,6.75
2023-04-20T19:13:19.801Z,7.82
2023-04-20T19:15:48.206Z,6.75
2023-04-20T19:18:17.558Z,6.55
2023-04-20T19:20:47.938Z,6.35
2023-04-20T19:23:17.497Z,6.32
2023-04-20T19:25:44.613Z,9.20
2023-04-20T19:28:12.317Z,6.63
2023-04-20T19:30:40.149Z,7.65
2023-04-20T19:33:08.433Z,6.00
2023-04-20T19:35:36.015Z,6.63
2023-04-20T19:38:03.974Z,5.88
2023-04-20T19:40:32.193Z,6.93
2023-04-20T19:42:59.546Z,9.65
2023-04-20T19:45:27.257Z,6.38
2023-04-20T19:47:54.664Z,5.57
2023-04-20T19:50:23.027Z,6.53
2023-04-20T19:52:53.291Z,5.60
2023-04-20T19:55:20.604Z,7.47
2023-04-20T19:57:48.578Z,6.18
2023-04-20T20:00:15.743Z,7.88
2023-04-20T20:02:43.341Z,4.93
2023-04-20T20:05:11.169Z,5.80
2023-04-20T20:07:38.601Z,6.03
2023-04-20T20:10:06.559Z,8.90
2023-04-20T20:12:36.986Z,4.85
2023-04-20T20:15:04.911Z,4.63
2023-04-20T20:20:02.079Z,6.30
2023-04-20T20:22:30.598Z,6.72
2023-04-20T20:24:58.800Z,8.98
2023-04-20T20:27:28.984Z,5.22
2023-04-20T20:29:56.322Z,2.75
2023-04-20T20:32:24.928Z,4.10
2023-04-20T20:34:53.187Z,2.17
2023-04-20T20:37:21.407Z,4.88
2023-04-20T20:39:48.454Z,2.53
2023-04-20T20:42:16.222Z,3.55
2023-04-20T20:44:44.413Z,5.90
2023-04-20T20:47:11.834Z,3.58
2023-04-20T20:49:39.208Z,1.85
2023-04-20T20:52:07.373Z,2.00
2023-04-20T20:54:35.438Z,2.45
2023-04-20T20:57:03.115Z,2.20
2023-04-20T20:59:30.639Z,3.10
2023-04-20T21:02:09.696Z,3.25
2023-04-20T21:04:37.364Z,3.60
2023-04-20T21:07:05.750Z,2.60
2023-04-20T21:09:33.233Z,1.50
2023-04-20T21:12:01.507Z,4.43
2023-04-20T21:14:29.978Z,1.77
2023-04-20T21:16:57.514Z,2.20
2023-04-20T21:19:24.570Z,4.50
2023-04-20T21:21:51.930Z,3.50
2023-04-20T21:24:20.594Z,2.38
2023-04-20T21:26:48.264Z,4.15
2023-04-20T21:29:15.895Z,3.83
2023-04-20T21:31:46.563Z,5.88
2023-04-20T21:34:13.544Z,2.33
2023-04-20T21:36:42.292Z,3.08
2023-04-20T21:39:09.443Z,5.63
2023-04-20T21:41:36.754Z,1.70
2023-04-20T21:44:03.869Z,3.72
2023-04-20T21:46:31.375Z,4.38
2023-04-20T21:48:58.511Z,2.90
2023-04-20T21:51:28.766Z,5.10
2023-04-20T21:53:55.775Z,3.22
2023-04-20T21:56:23.041Z,3.50
2023-04-20T21:58:51.044Z,3.72
2023-04-20T22:01:18.635Z,7.13
2023-04-20T22:03:45.824Z,4.43
2023-04-20T22:06:13.357Z,4.63
2023-04-20T22:08:40.362Z,3.92
2023-04-20T22:11:09.252Z,7.10
2023-04-20T22:13:37.200Z,5.00
2023-04-20T22:16:04.918Z,3.13
2023-04-20T22:18:31.947Z,3.95
2023-04-20T22:20:59.463Z,4.07
2023-04-20T22:23:27.173Z,3.35
2023-04-20T22:25:55.778Z,3.00
2023-04-20T22:28:22.850Z,6.05
2023-04-20T22:30:50.243Z,3.13
2023-04-20T22:33:17.327Z,6.63
2023-04-20T22:35:45.152Z,5.38
2023-04-20T22:38:12.134Z,4.88
2023-04-20T22:40:39.378Z,3.15
2023-04-20T22:43:06.528Z,4.13
2023-04-20T22:45:33.953Z,2.45
2023-04-20T22:48:01.654Z,3.45
2023-04-20T22:50:29.123Z,4.18
2023-04-20T22:52:56.146Z,4.28
2023-04-20T22:55:23.561Z,6.15
2023-04-20T22:57:50.633Z,3.05
2023-04-20T23:00:18.244Z,4.22
2023-04-20T23:02:45.444Z,4.03
2023-04-20T23:05:13.200Z,4.15
2023-04-20T23:07:40.511Z,3.45
2023-04-20T23:10:08.760Z,8.85
2023-04-20T23:12:36.578Z,4.32
2023-04-20T23:15:06.162Z,2.33
2023-04-20T23:20:03.714Z,5.70
2023-04-20T23:22:30.889Z,6.13
2023-04-20T23:24:58.184Z,3.50
2023-04-20T23:27:25.299Z,2.80
2023-04-20T23:29:52.580Z,3.63
2023-04-20T23:32:19.581Z,4.47
2023-04-20T23:34:47.033Z,2.58
2023-04-20T23:37:14.523Z,4.07
2023-04-20T23:39:41.846Z,7.95
2023-04-20T23:42:08.795Z,7.10
2023-04-20T23:44:36.127Z,5.40
2023-04-20T23:47:03.163Z,2.90
2023-04-20T23:49:32.866Z,4.38
2023-04-20T23:51:59.869Z,5.95
2023-04-20T23:54:27.368Z,6.35
2023-04-20T23:56:55.560Z,2.67
2023-04-20T23:59:23.019Z,3.50
